• Join FlightAware (Why Join?)
  • Login
  • US Flag 
09:11AM EST


 

Airport Tracker/Info


-or-


 

Live Flight TrackerFlight Track Log ✈ EJA831 ✈ 27-Sep-2013 ✈ KMRY - KOTH

Flight Track Log - Related Links

Times and Time Zones

All times are in EDT time to prevent confusion due to time zone crossing. See the EJA831 flight status page for this flight to view local times or setup timezone preferences in your user account.

Time Position Orientation Groundspeed Altitude Reporting Facility
EDT Latitude Longitude Course Direction KTS MPH feet Rate Location/Type
05:04PM 36.6167 -121.9000 332° Northwest 214 246 3,300  Level Northern Cal TRACON
05:05PM 36.6667 -121.9333 332° Northwest 240 276 7,800 3,540 Climbing Northern Cal TRACON
05:06PM 36.7333 -122.0000 321° Northwest 271 312 10,400 2,400 Climbing Northern Cal TRACON
05:07PM 36.7833 -122.0667 313° West 307 353 12,600 2,400 Climbing Northern Cal TRACON
05:08PM 36.8500 -122.1333 321° Northwest 312 359 15,200 2,520 Climbing Northern Cal TRACON
05:09PM 36.8806 -122.1872 305° West 312 359 16,700 2,400 Climbing Oakland Center
05:10PM 36.9431 -122.2628 316° Northwest 312 359 19,100 2,340 Climbing Oakland Center
05:11PM 37.0069 -122.3389 316° Northwest 317 365 21,600 2,280 Climbing Oakland Center
05:12PM 37.0722 -122.4181 316° Northwest 325 374 23,900 2,040 Climbing Oakland Center
05:13PM 37.1550 -122.4706 333° Northwest 343 395 25,800 1,740 Climbing Oakland Center
05:14PM 37.2464 -122.5108 341° North 349 402 27,500 1,740 Climbing Oakland Center
05:15PM 37.3597 -122.5539 343° North 353 406 29,400 2,100 Climbing Oakland Center
05:16PM 37.4567 -122.5564 359° North 347 399 31,900 1,260 Climbing Oakland Center
05:17PM 37.5575 -122.5689 354° North 361 415 32,000  Climbing Oakland Center
05:18PM 37.6658 -122.5972 348° North 393 452 32,000  Level Oakland Center
05:19PM 37.7764 -122.6267 348° North 402 463 32,000  Level Oakland Center
05:20PM 37.8944 -122.6569 349° North 406 467 32,000  Level Oakland Center
05:21PM 38.0081 -122.6892 347° North 411 473 32,000  Level Oakland Center
05:22PM 38.1189 -122.7172 349° North 408 470 32,000  Level Oakland Center
05:23PM 38.2292 -122.7464 348° North 405 466 32,000  Level Oakland Center
05:24PM 38.3394 -122.7764 348° North 406 467 32,000  Level Oakland Center
05:25PM 38.4511 -122.8056 348° North 407 468 32,000  Level Oakland Center
05:26PM 38.5831 -122.8422 348° North 406 467 32,000  Level Oakland Center
05:27PM 38.6942 -122.8717 348° North 408 470 32,000  Level Oakland Center
05:28PM 38.8047 -122.9017 348° North 409 471 32,000  Level Oakland Center
05:29PM 38.9161 -122.9319 348° North 410 472 32,000  Level Oakland Center
05:30PM 39.0264 -122.9625 348° North 407 468 32,000  Level Oakland Center
05:31PM 39.1364 -122.9931 348° North 408 470 32,000  Level Oakland Center
05:32PM 39.2439 -123.0239 347° North 398 458 32,000  Level Oakland Center
05:33PM 39.3725 -123.0583 348° North 394 453 32,000  Level Oakland Center
05:35PM 39.4850 -123.0883 348° North 393 452 32,000  Level Oakland Center
05:36PM 39.5925 -123.1194 347° North 395 455 32,000  Level Oakland Center
05:37PM 39.7011 -123.1497 348° North 398 458 32,000  Level Oakland Center
05:38PM 39.8092 -123.1811 347° North 397 457 32,000  Level Oakland Center
05:39PM 39.9175 -123.2106 348° North 396 456 32,000  Level Oakland Center
05:40PM 40.0356 -123.2436 348° North 395 455 32,000  Level Oakland Center
05:41PM 40.1419 -123.2736 348° North 393 452 32,000  Level Oakland Center
05:42PM 40.2472 -123.3033 348° North 390 449 32,000  Level Oakland Center
05:43PM 40.3539 -123.3333 348° North 393 452 32,000  Level Oakland Center
05:44PM 40.4586 -123.3631 348° North 389 448 32,000  Level Oakland Center
05:45PM 40.5639 -123.3942 347° North 391 450 32,000  Level Oakland Center
05:46PM 40.6906 -123.4303 348° North 391 450 32,000  Level Oakland Center
05:47PM 40.7967 -123.4603 348° North 392 451 32,000  Level Oakland Center
05:48PM 40.9039 -123.4914 348° North 392 451 32,000  Level Seattle Center
05:49PM 41.0097 -123.5222 348° North 393 452 32,000  Level Seattle Center
05:50PM 41.1169 -123.5528 348° North 395 455 32,000  Level Seattle Center
05:51PM 41.2450 -123.5908 347° North 395 455 32,000  Level Seattle Center
05:52PM 41.3519 -123.6211 348° North 394 453 32,000  Level Seattle Center
05:53PM 41.4581 -123.6506 348° North 393 452 32,000  Level Seattle Center
05:54PM 41.5636 -123.6817 348° North 391 450 32,000  Level Seattle Center
05:55PM 41.6697 -123.7144 347° North 389 448 32,000  Level Seattle Center
05:56PM 41.7736 -123.7450 348° North 384 442 32,000 -720 Level Seattle Center
05:57PM 41.8767 -123.7750 348° North 379 436 30,600 -1,680 Descending Seattle Center
05:58PM 41.9775 -123.8047 348° North 372 428 28,600 -1,980 Descending Seattle Center
05:59PM 42.0811 -123.8364 347° North 380 437 26,600 -2,160 Descending Seattle Center
06:00PM 42.2028 -123.8711 348° North 386 444 24,200 -2,220 Descending Seattle Center
06:01PM 42.3069 -123.9036 347° North 385 443 22,200 -1,980 Descending Seattle Center
06:02PM 42.4078 -123.9317 348° North 372 428 20,200 -1,920 Descending Seattle Center
06:03PM 42.5036 -123.9639 346° North 360 414 18,300 -1,740 Descending Seattle Center
06:04PM 42.6006 -123.9928 348° North 358 412 16,700 -1,740 Descending Seattle Center
06:05PM 42.6922 -124.0167 349° North 324 373 14,800 -1,860 Descending Seattle Center
06:06PM 42.7708 -124.0397 348° North 294 338 13,000 -1,800 Descending Seattle Center
06:07PM 42.8489 -124.0611 349° North 288 331 11,200 -1,800 Descending Seattle Center
06:08PM 42.9239 -124.0825 348° North 278 320 9,400 -1,860 Descending Seattle Center
06:09PM 43.0033 -124.1061 348° North 274 315 7,500 -1,860 Descending Seattle Center
06:10PM 43.0772 -124.1303 347° North 273 314 5,600 -1,740 Descending Seattle Center
06:11PM 43.1467 -124.1478 350° North 266 306 4,000 -840 Descending Seattle Center
06:12PM 43.2119 -124.1650 349° North 253 291 4,000 -60 Level Seattle Center
06:13PM 43.2475 -124.1042 51° Northeast 234 269 3,900 -60 Descending Seattle Center
06:14PM 43.2783 -124.0275 61° Northeast 223 257 3,900  Level Seattle Center
06:15PM 43.3189 -123.9778 42° Northeast 218 251 3,900  Level Seattle Center
06:16PM 43.3831 -123.9403 23° Northeast 216 249 3,900  Level Seattle Center
06:17PM 43.4092 -123.9908 305° West 193 222 3,900 -420 Level Seattle Center
06:19PM 43.4122 -124.0542 274° West 170 196 3,100 -720 Descending Seattle Center
06:20PM 43.4142 -124.1142 273° West 161 185 2,500 -600 Descending Seattle Center
06:21PM 43.4156 -124.1761 272° West 160 184 1,900 -480 Descending Seattle Center
06:22PM 43.4164 -124.2272 271° West 159 183 1,600 -300 Descending Seattle Center
06:24PM 43.4167 -124.2333 283° West  Level FlightAware Approximate